• Join FlightAware (Why Join?)
  • Login
  • US Flag 
01:45PM EDT


 

Airport Tracker/Info


-or-


 

Live Flight TrackerFlight Track Log ✈ WIG8306 ✈ 31-Jul-2013 ✈ KEWR - KALB

Flight Track Log - Related Links

Times and Time Zones

All times are in EDT time to prevent confusion due to time zone crossing. See the WIG8306 flight status page for this flight to view local times or setup timezone preferences in your user account.

Time Position Orientation Groundspeed Altitude Reporting Facility
EDT Latitude Longitude Course Direction KTS MPH feet Rate Location/Type
04:25AM 40.7500 -74.1167 14° North 101 116 3,900  Level New York TRACON
04:27AM 40.8167 -74.1000 11° North 102 117 6,100 1,080 Climbing New York TRACON
04:28AM 40.8500 -74.1000 360° North 102 117 7,300 660 Climbing New York TRACON
04:29AM 40.8981 -74.0931 North 119 137 8,000 240 Climbing Boston Center
04:30AM 40.9448 -74.1406 14° North  Level FlightAware Approximate
04:30AM 40.9419 -74.0858 North 136 157 8,000  Level Boston Center
04:31AM 40.9839 -74.0789 North 147 169 8,000  Level Boston Center
04:32AM 41.0256 -74.0744 North 147 169 8,000  Level Boston Center
04:33AM 41.0631 -74.0697 North 147 169 8,000  Level Boston Center
04:34AM 41.1111 -74.0600 North 147 169 8,000  Level Boston Center
04:35AM 41.1508 -74.0528 North 152 175 8,000  Level Boston Center
04:36AM 41.1989 -74.0456 North 157 181 8,000  Level Boston Center
04:37AM 41.2386 -74.0411 North 162 186 8,000  Level Boston Center
04:38AM 41.2867 -74.0339 North 156 180 8,000  Level Boston Center
04:39AM 41.3264 -74.0267 North 156 180 8,000  Level Boston Center
04:40AM 41.3722 -74.0194 North 161 185 8,000  Level Boston Center
04:41AM 41.4119 -74.0150 North 156 180 8,000  Level Boston Center
04:42AM 41.4581 -74.0050 North 156 180 8,000  Level Boston Center
04:43AM 41.4975 -74.0006 North 156 180 8,000  Level Boston Center
04:44AM 41.5458 -73.9906 North 156 180 8,000  Level Boston Center
04:45AM 41.5875 -73.9861 North 156 180 8,000  Level Boston Center
04:46AM 41.6314 -73.9789 North 156 180 8,000  Level Boston Center
04:47AM 41.6731 -73.9714 North 156 180 8,000  Level Boston Center
04:48AM 41.7192 -73.9642 North 162 186 8,000  Level Boston Center
04:49AM 41.7608 -73.9597 North 157 181 8,000 -300 Level Boston Center
04:50AM 41.8089 -73.9497 North 157 181 7,400 -540 Descending Boston Center
04:51AM 41.8547 -73.9453 North 162 186 7,000 -240 Descending Boston Center
04:52AM 41.8986 -73.9378 North 157 181 7,000  Level Boston Center
04:53AM 41.9383 -73.9333 North 157 181 7,000  Level Boston Center
04:54AM 41.9864 -73.9261 North 152 175 7,000  Level Boston Center
04:55AM 42.0322 -73.9158 North 152 175 7,000  Level Boston Center
04:56AM 42.0719 -73.9111 North 152 175 7,000  Level Boston Center
04:57AM 42.1181 -73.9039 North 147 169 7,000  Level Boston Center
04:58AM 42.1556 -73.8992 North 147 169 7,000 -360 Level Boston Center
04:59AM 42.2056 -73.8892 North 152 175 6,300 -840 Descending Boston Center
05:00AM 42.2475 -73.8789 10° North 157 181 5,400 -900 Descending Boston Center
05:01AM 42.2975 -73.8717 North 157 181 4,500 -900 Descending Boston Center
05:02AM 42.3372 -73.8642 North 162 186 3,700 -780 Descending Boston Center
05:03AM 42.3853 -73.8539 North 162 186 3,000 -360 Descending Boston Center
05:05AM 42.4208 -73.8492 North 156 180 3,000  Level Boston Center
05:05AM 42.4625 -73.8417 North 142 163 3,000  Level Boston Center
05:07AM 42.4981 -73.8339 North 142 163 3,000  Level Boston Center
05:07AM 42.5378 -73.8264 North 142 163 3,000  Level Boston Center
05:08AM 42.5714 -73.8186 10° North 142 163 3,000 -300 Level Boston Center
05:09AM 42.6172 -73.8114 North 142 163 2,500 -540 Descending Boston Center
05:11AM 42.6631 -73.8008 10° North 117 135 1,700 -600 Descending Boston Center
05:12AM 42.6944 -73.8072 351° North 103 119 1,100 -600 Descending Boston Center
05:13AM 42.7256 -73.8053 North 100 115 600 -540 Descending Boston Center